createdAt,value
2019-04-29T00:01:36.843Z,100738.60
2019-04-29T00:04:06.734Z,100739.07
2019-04-29T00:06:36.687Z,100746.66
2019-04-29T00:09:10.607Z,100744.63
2019-04-29T00:11:40.526Z,100753.84
2019-04-29T00:14:10.686Z,100750.91
2019-04-29T00:16:59.138Z,100737.73
2019-04-29T00:19:50.833Z,100742.37
2019-04-29T00:22:20.908Z,100739.27
2019-04-29T00:24:50.699Z,100748.63
2019-04-29T00:27:20.458Z,100752.08
2019-04-29T00:29:50.171Z,100751.94
2019-04-29T00:32:19.959Z,100755.14
2019-04-29T00:34:49.885Z,100759.25
2019-04-29T00:37:44.463Z,100756.27
2019-04-29T00:40:48.480Z,100753.94
2019-04-29T00:43:49.527Z,100752.87
2019-04-29T00:46:19.610Z,100756.97
2019-04-29T00:48:49.255Z,100760.13
2019-04-29T00:51:19.204Z,100762.98
2019-04-29T00:53:50.790Z,100771.48
2019-04-29T00:56:20.554Z,100762.23
2019-04-29T00:58:50.539Z,100757.85
2019-04-29T01:01:24.245Z,100760.97
2019-04-29T01:03:53.987Z,100758.73
2019-04-29T01:06:24.104Z,100763.11
2019-04-29T01:08:53.968Z,100766.19
2019-04-29T01:11:24.067Z,100767.12
2019-04-29T01:13:53.877Z,100772.70
2019-04-29T01:16:23.800Z,100771.72
2019-04-29T01:18:53.722Z,100770.52
2019-04-29T01:21:24.219Z,100774.98
2019-04-29T01:23:54.126Z,100770.77
2019-04-29T01:26:52.142Z,100771.68
2019-04-29T01:29:22.612Z,100775.34
2019-04-29T01:31:52.514Z,100773.73
2019-04-29T01:34:26.700Z,100768.92
2019-04-29T01:36:56.639Z,100775.06
2019-04-29T01:39:34.724Z,100772.66
2019-04-29T01:42:13.800Z,100780.81
2019-04-29T01:44:43.650Z,100779.21
2019-04-29T01:47:13.561Z,100772.47
2019-04-29T01:49:43.514Z,100771.16
2019-04-29T01:52:13.490Z,100772.47
2019-04-29T01:54:43.348Z,100770.28
2019-04-29T01:57:13.222Z,100766.64
2019-04-29T01:59:43.044Z,100764.11
2019-04-29T02:02:12.922Z,100760.53
2019-04-29T02:04:42.789Z,100756.98
2019-04-29T02:07:12.498Z,100755.77
2019-04-29T02:10:06.583Z,100756.20
2019-04-29T02:12:36.385Z,100758.34
2019-04-29T02:15:06.816Z,100756.27
2019-04-29T02:17:36.743Z,100756.33
2019-04-29T02:20:07.082Z,100753.42
2019-04-29T02:22:48.146Z,100749.84
2019-04-29T02:25:39.450Z,100753.16
2019-04-29T02:28:09.271Z,100754.34
2019-04-29T02:30:47.087Z,100750.04
2019-04-29T02:33:17.181Z,100749.70
2019-04-29T02:35:47.245Z,100743.57
2019-04-29T02:38:35.970Z,100746.88
2019-04-29T02:41:18.989Z,100737.09
2019-04-29T02:43:50.327Z,100748.13
2019-04-29T02:46:20.149Z,100746.27
2019-04-29T02:48:50.542Z,100750.89
2019-04-29T02:51:42.395Z,100750.89
2019-04-29T02:54:12.275Z,100763.02
2019-04-29T02:56:43.798Z,100759.58
2019-04-29T02:59:14.838Z,100758.86
2019-04-29T03:02:03.790Z,100765.63
2019-04-29T03:04:36.807Z,100768.98
2019-04-29T03:07:06.597Z,100764.12
2019-04-29T03:09:45.554Z,100757.84
2019-04-29T03:12:15.438Z,100752.56
2019-04-29T03:14:45.476Z,100751.17
2019-04-29T03:17:18.665Z,100750.02
2019-04-29T03:20:05.217Z,100754.61
2019-04-29T03:22:35.405Z,100756.59
2019-04-29T03:25:05.725Z,100761.59
2019-04-29T03:27:35.535Z,100759.29
2019-04-29T03:30:05.841Z,100754.08
2019-04-29T03:32:35.556Z,100758.23
2019-04-29T03:35:05.697Z,100748.20
2019-04-29T03:37:35.661Z,100749.19
2019-04-29T03:40:06.337Z,100750.17
2019-04-29T03:42:36.154Z,100753.71
2019-04-29T03:45:06.549Z,100749.49
2019-04-29T03:47:36.307Z,100757.59
2019-04-29T03:50:06.342Z,100757.77
2019-04-29T03:52:36.181Z,100754.83
2019-04-29T03:55:06.067Z,100755.81
2019-04-29T03:57:37.437Z,100754.55
2019-04-29T04:00:08.967Z,100756.72
2019-04-29T04:03:00.394Z,100757.77
2019-04-29T04:05:41.880Z,100756.42
2019-04-29T04:08:18.661Z,100761.73
2019-04-29T04:10:48.357Z,100764.25
2019-04-29T04:13:18.224Z,100765.17
2019-04-29T04:15:48.096Z,100767.38
2019-04-29T04:18:23.458Z,100768.19
2019-04-29T04:20:53.137Z,100768.86
2019-04-29T04:23:22.983Z,100767.77
2019-04-29T04:25:52.997Z,100771.52
2019-04-29T04:28:22.850Z,100772.70
2019-04-29T04:30:52.774Z,100782.76
2019-04-29T04:33:22.642Z,100777.94
2019-04-29T04:35:53.921Z,100778.75
2019-04-29T04:38:23.693Z,100779.00
2019-04-29T04:41:03.718Z,100783.33
2019-04-29T04:43:33.606Z,100791.03
2019-04-29T04:46:03.471Z,100792.20
2019-04-29T04:48:34.632Z,100791.66
2019-04-29T04:51:04.430Z,100789.45
2019-04-29T04:53:34.152Z,100780.02
2019-04-29T04:56:04.118Z,100776.34
2019-04-29T04:58:33.869Z,100778.34
2019-04-29T05:01:03.929Z,100775.33
2019-04-29T05:03:33.699Z,100776.84
2019-04-29T05:06:03.618Z,100767.16
2019-04-29T05:08:33.803Z,100775.96
2019-04-29T05:11:03.664Z,100771.00
2019-04-29T05:13:33.564Z,100769.09
2019-04-29T05:16:03.546Z,100770.87
2019-04-29T05:18:33.227Z,100767.49
2019-04-29T05:21:03.014Z,100762.73
2019-04-29T05:23:32.947Z,100765.14
2019-04-29T05:26:02.652Z,100757.78
2019-04-29T05:28:32.580Z,100751.93
2019-04-29T05:31:02.431Z,100753.54
2019-04-29T05:33:32.404Z,100747.84
2019-04-29T05:36:20.303Z,100749.59
2019-04-29T05:38:53.555Z,100751.27
2019-04-29T05:41:25.466Z,100761.73
2019-04-29T05:44:05.839Z,100759.94
2019-04-29T05:46:56.988Z,100768.36
2019-04-29T05:49:37.475Z,100768.84
2019-04-29T05:52:34.720Z,100772.98
2019-04-29T05:55:02.735Z,100776.67
2019-04-29T05:57:32.576Z,100769.47
2019-04-29T06:00:02.382Z,100773.80
2019-04-29T06:02:38.545Z,100778.69
2019-04-29T06:05:05.858Z,100776.98
2019-04-29T06:07:36.111Z,100790.66
2019-04-29T06:10:06.961Z,100797.73
2019-04-29T06:12:36.696Z,100807.42
2019-04-29T06:15:07.985Z,100797.25
2019-04-29T06:17:39.938Z,100795.27
2019-04-29T06:20:13.182Z,100792.59
2019-04-29T06:22:41.842Z,100790.45
2019-04-29T06:25:12.154Z,100793.82
2019-04-29T06:27:42.040Z,100798.50
2019-04-29T06:30:11.946Z,100802.09
2019-04-29T06:32:41.817Z,100788.84
2019-04-29T06:35:14.271Z,100790.99
2019-04-29T06:37:44.568Z,100787.80
2019-04-29T06:40:14.712Z,100785.66
2019-04-29T06:42:49.462Z,100779.77
2019-04-29T06:45:18.742Z,100780.70
2019-04-29T06:47:48.573Z,100785.47
2019-04-29T06:50:18.498Z,100786.05
2019-04-29T06:52:48.425Z,100787.45
2019-04-29T06:55:18.175Z,100783.30
2019-04-29T06:57:48.089Z,100778.19
2019-04-29T07:00:22.159Z,100787.23
2019-04-29T07:02:51.030Z,100778.56
2019-04-29T07:05:20.911Z,100772.77
2019-04-29T07:07:50.681Z,100770.39
2019-04-29T07:10:21.776Z,100762.91
2019-04-29T07:12:52.105Z,100768.48
2019-04-29T07:15:22.381Z,100770.53
2019-04-29T07:17:52.149Z,100764.36
2019-04-29T07:20:22.230Z,100764.36
2019-04-29T07:22:52.071Z,100769.02
2019-04-29T07:25:24.568Z,100769.02
2019-04-29T07:27:54.377Z,100767.72
2019-04-29T07:30:24.302Z,100764.95
2019-04-29T07:32:54.105Z,100764.95
2019-04-29T07:35:23.957Z,100767.57
2019-04-29T07:37:53.629Z,100770.53
2019-04-29T07:40:23.844Z,100759.78
2019-04-29T07:42:53.935Z,100769.14
2019-04-29T07:45:44.412Z,100769.14
2019-04-29T07:48:12.374Z,100765.17
2019-04-29T07:50:43.541Z,100756.89
2019-04-29T07:53:13.298Z,100759.56
2019-04-29T07:55:43.205Z,100760.63
2019-04-29T07:58:13.184Z,100760.50
2019-04-29T08:00:44.692Z,100769.45
2019-04-29T08:03:14.832Z,100757.23
2019-04-29T08:05:46.087Z,100760.34
2019-04-29T08:08:16.693Z,100762.84
2019-04-29T08:10:56.115Z,100764.52
2019-04-29T08:13:21.504Z,100767.67
2019-04-29T08:15:51.400Z,100762.94
2019-04-29T08:18:21.212Z,100771.00
2019-04-29T08:20:51.377Z,100764.53
2019-04-29T08:23:22.350Z,100758.61
2019-04-29T08:25:52.161Z,100760.79
2019-04-29T08:28:21.882Z,100752.19
2019-04-29T08:30:53.223Z,100749.35
2019-04-29T08:33:22.922Z,100750.63
2019-04-29T08:35:52.752Z,100744.51
2019-04-29T08:38:22.679Z,100771.72
2019-04-29T08:40:52.569Z,100734.48
2019-04-29T08:43:52.565Z,100749.49
2019-04-29T08:46:30.608Z,100741.08
2019-04-29T08:49:06.028Z,100746.95
2019-04-29T08:51:34.768Z,100745.64
2019-04-29T08:54:04.848Z,100741.59
2019-04-29T08:56:34.563Z,100740.66
2019-04-29T08:59:06.052Z,100733.86
2019-04-29T09:01:35.951Z,100744.61
2019-04-29T09:04:05.971Z,100737.69
2019-04-29T09:06:37.162Z,100741.44
2019-04-29T09:09:10.645Z,100734.82
2019-04-29T09:11:39.320Z,100735.83
2019-04-29T09:14:12.718Z,100730.23
2019-04-29T09:16:41.135Z,100725.53
2019-04-29T09:19:10.940Z,100722.10
2019-04-29T09:21:43.873Z,100710.85
2019-04-29T09:24:13.699Z,100703.53
2019-04-29T09:26:49.803Z,100709.64
2019-04-29T09:29:33.316Z,100709.64
2019-04-29T09:32:04.820Z,100701.83
2019-04-29T09:34:34.657Z,100711.03
2019-04-29T09:37:04.738Z,100700.59
2019-04-29T09:39:43.450Z,100697.64
2019-04-29T09:42:30.875Z,100697.64
2019-04-29T09:45:09.683Z,100692.93
2019-04-29T09:47:39.597Z,100694.20
2019-04-29T09:50:09.855Z,100696.25
2019-04-29T09:52:39.701Z,100694.63
2019-04-29T09:55:09.832Z,100688.30
2019-04-29T09:57:39.795Z,100686.41
2019-04-29T10:00:21.935Z,100669.20
2019-04-29T10:03:03.103Z,100669.20
2019-04-29T10:05:54.872Z,100668.83
2019-04-29T10:08:26.294Z,100673.16
2019-04-29T10:10:56.263Z,100685.95
2019-04-29T10:13:26.174Z,100685.95
2019-04-29T10:16:08.087Z,100684.78
2019-04-29T10:18:45.630Z,100673.66
2019-04-29T10:21:20.956Z,100673.66
2019-04-29T10:23:49.285Z,100669.00
2019-04-29T10:26:19.243Z,100666.39
2019-04-29T10:28:59.002Z,100660.73
2019-04-29T10:31:28.756Z,100653.48
2019-04-29T10:33:58.686Z,100651.45
2019-04-29T10:36:28.548Z,100665.97
2019-04-29T10:39:02.523Z,100665.83
2019-04-29T10:41:41.774Z,100669.64
2019-04-29T10:44:37.407Z,100660.87
2019-04-29T10:47:31.339Z,100656.95
2019-04-29T10:50:05.369Z,100651.69
2019-04-29T10:52:38.664Z,100654.56
2019-04-29T10:55:08.543Z,100646.67
2019-04-29T10:57:39.791Z,100646.67
2019-04-29T11:00:21.770Z,100644.54
2019-04-29T11:02:52.205Z,100641.33
2019-04-29T11:05:32.257Z,100638.29
2019-04-29T11:08:33.846Z,100631.98
2019-04-29T11:11:03.716Z,100628.59
2019-04-29T11:13:33.565Z,100632.34
2019-04-29T11:16:03.397Z,100638.06
2019-04-29T11:18:34.856Z,100624.77
2019-04-29T11:21:04.891Z,100624.77
2019-04-29T11:23:54.874Z,100632.30
2019-04-29T11:26:39.436Z,100632.59
2019-04-29T11:29:09.611Z,100619.64
2019-04-29T11:31:39.763Z,100617.13
2019-04-29T11:34:39.184Z,100622.80
2019-04-29T11:37:13.816Z,100625.05
2019-04-29T11:39:46.210Z,100623.76
2019-04-29T11:42:15.266Z,100616.52
2019-04-29T11:44:45.192Z,100625.22
2019-04-29T11:47:16.218Z,100614.59
2019-04-29T11:49:54.940Z,100616.48
2019-04-29T11:52:28.048Z,100611.15
2019-04-29T11:54:56.092Z,100595.55
2019-04-29T11:57:41.475Z,100608.14
2019-04-29T12:00:37.797Z,100605.05
2019-04-29T12:03:14.356Z,100604.89
2019-04-29T12:05:45.229Z,100598.17
2019-04-29T12:08:16.948Z,100600.07
2019-04-29T12:11:05.530Z,100597.81
2019-04-29T12:13:30.683Z,100599.75
2019-04-29T12:16:09.818Z,100588.72
2019-04-29T12:18:48.393Z,100598.47
2019-04-29T12:21:31.164Z,100588.67
2019-04-29T12:24:02.040Z,100579.13
2019-04-29T12:26:35.512Z,100579.13
2019-04-29T12:29:04.394Z,100581.98
2019-04-29T12:31:49.419Z,100592.69
2019-04-29T12:34:37.712Z,100582.94
2019-04-29T12:37:17.507Z,100582.55
2019-04-29T12:40:09.777Z,100559.45
2019-04-29T12:43:00.100Z,100559.45
2019-04-29T12:45:44.000Z,100560.09
2019-04-29T12:48:24.383Z,100554.59
2019-04-29T12:50:46.462Z,100552.14
2019-04-29T12:53:16.219Z,100534.05
2019-04-29T12:55:51.547Z,100541.17
2019-04-29T12:58:23.908Z,100544.08
2019-04-29T13:00:59.896Z,100536.44
2019-04-29T13:03:40.075Z,100531.80
2019-04-29T13:06:24.117Z,100543.02
2019-04-29T13:08:55.577Z,100540.44
2019-04-29T13:11:37.479Z,100539.91
2019-04-29T13:14:01.616Z,100538.29
2019-04-29T13:16:55.671Z,100531.70
2019-04-29T13:19:31.853Z,100533.48
2019-04-29T13:22:02.952Z,100535.17
2019-04-29T13:24:32.756Z,100526.95
2019-04-29T13:27:15.604Z,100513.94
2019-04-29T13:29:36.140Z,100506.09
2019-04-29T13:32:06.102Z,100512.63
2019-04-29T13:34:40.019Z,100506.05
2019-04-29T13:37:18.361Z,100501.43
2019-04-29T13:39:41.470Z,100504.54
2019-04-29T13:42:15.383Z,100502.42
2019-04-29T13:45:04.507Z,100496.08
2019-04-29T13:47:32.228Z,100498.69
2019-04-29T13:50:18.895Z,100485.98
2019-04-29T13:52:41.419Z,100490.66
2019-04-29T13:55:17.700Z,100481.63
2019-04-29T13:57:45.025Z,100478.47
2019-04-29T14:00:36.270Z,100482.11
2019-04-29T14:03:12.762Z,100475.64
2019-04-29T14:05:42.635Z,100477.95
2019-04-29T14:08:12.418Z,100475.27
2019-04-29T14:10:42.130Z,100473.17
2019-04-29T14:13:16.825Z,100483.24
2019-04-29T14:15:43.910Z,100473.05
2019-04-29T14:18:14.125Z,100476.82
2019-04-29T14:20:47.292Z,100481.91
2019-04-29T14:23:16.748Z,100472.96
2019-04-29T14:25:46.580Z,100475.47
2019-04-29T14:28:16.339Z,100480.00
2019-04-29T14:30:47.642Z,100480.16
2019-04-29T14:33:24.392Z,100476.98
2019-04-29T14:36:08.161Z,100475.88
2019-04-29T14:38:40.644Z,100467.91
2019-04-29T14:41:09.800Z,100477.42
2019-04-29T14:43:57.039Z,100465.03
2019-04-29T14:46:44.374Z,100471.30
2019-04-29T14:49:26.557Z,100475.94
2019-04-29T14:51:56.370Z,100461.84
2019-04-29T14:54:26.183Z,100452.52
2019-04-29T14:56:56.144Z,100458.29
2019-04-29T14:59:26.067Z,100458.25
2019-04-29T15:02:16.217Z,100447.56
2019-04-29T15:04:45.134Z,100457.00
2019-04-29T15:07:14.934Z,100439.38
2019-04-29T15:09:58.369Z,100446.63
2019-04-29T15:13:18.312Z,100448.04
2019-04-29T15:15:43.997Z,100440.48
2019-04-29T15:18:29.368Z,100450.37
2019-04-29T15:21:01.744Z,100451.38
2019-04-29T15:23:32.788Z,100454.17
2019-04-29T15:26:01.138Z,100449.73
2019-04-29T15:28:34.036Z,100457.30
2019-04-29T15:31:07.859Z,100458.96
2019-04-29T15:33:35.842Z,100451.20
2019-04-29T15:36:05.609Z,100445.30
2019-04-29T15:38:35.569Z,100447.55
2019-04-29T15:41:06.013Z,100447.55
2019-04-29T15:43:47.223Z,100437.52
2019-04-29T15:46:11.370Z,100427.30
2019-04-29T15:48:40.519Z,100427.30
2019-04-29T15:51:13.955Z,100434.77
2019-04-29T15:53:42.002Z,100436.47
2019-04-29T15:56:27.634Z,100436.47
2019-04-29T15:58:43.343Z,100436.55
2019-04-29T16:01:17.905Z,100440.19
2019-04-29T16:03:49.852Z,100442.70
2019-04-29T16:06:33.902Z,100442.33
2019-04-29T16:09:23.759Z,100454.96
2019-04-29T16:12:15.403Z,100450.00
2019-04-29T16:14:48.567Z,100446.20
2019-04-29T16:17:20.283Z,100450.45
2019-04-29T16:19:48.239Z,100442.77
2019-04-29T16:22:20.056Z,100436.09
2019-04-29T16:24:50.014Z,100440.63
2019-04-29T16:27:19.876Z,100446.52
2019-04-29T16:29:51.717Z,100451.99
2019-04-29T16:32:30.780Z,100452.75
2019-04-29T16:35:00.547Z,100453.37
2019-04-29T16:37:31.934Z,100452.08
2019-04-29T16:40:01.970Z,100457.74
2019-04-29T16:42:51.621Z,100462.75
2019-04-29T16:45:25.083Z,100461.88
2019-04-29T16:47:54.888Z,100462.08
2019-04-29T16:50:24.709Z,100454.83
2019-04-29T16:52:54.703Z,100462.84
2019-04-29T16:55:24.555Z,100471.37
2019-04-29T16:57:59.793Z,100462.16
2019-04-29T17:00:28.962Z,100469.62
2019-04-29T17:02:58.704Z,100477.67
2019-04-29T17:05:28.623Z,100474.98
2019-04-29T17:07:58.568Z,100480.64
2019-04-29T17:10:50.127Z,100480.99
2019-04-29T17:13:23.718Z,100485.95
2019-04-29T17:15:52.571Z,100485.72
2019-04-29T17:18:23.230Z,100487.92
2019-04-29T17:20:53.001Z,100486.84
2019-04-29T17:23:24.401Z,100484.09
2019-04-29T17:25:54.569Z,100486.02
2019-04-29T17:28:33.576Z,100486.42
2019-04-29T17:31:17.553Z,100485.34
2019-04-29T17:33:51.379Z,100485.25
2019-04-29T17:36:23.954Z,100494.76
2019-04-29T17:38:53.058Z,100492.78
2019-04-29T17:41:23.079Z,100496.22
2019-04-29T17:44:14.672Z,100489.95
2019-04-29T17:47:11.592Z,100497.69
2019-04-29T17:50:06.102Z,100496.48
2019-04-29T17:52:35.263Z,100505.18
2019-04-29T17:55:37.657Z,100507.94
2019-04-29T17:58:10.071Z,100512.55
2019-04-29T18:01:00.820Z,100506.80
2019-04-29T18:03:50.298Z,100519.23
2019-04-29T18:06:28.350Z,100518.51
2019-04-29T18:09:29.480Z,100520.08
2019-04-29T18:12:02.440Z,100531.47
2019-04-29T18:14:37.800Z,100531.97
2019-04-29T18:17:05.024Z,100543.11
2019-04-29T18:19:56.471Z,100544.42
2019-04-29T18:22:47.884Z,100542.68
2019-04-29T18:25:33.100Z,100547.76
2019-04-29T18:28:05.261Z,100545.73
2019-04-29T18:30:37.976Z,100549.17
2019-04-29T18:33:06.805Z,100552.98
2019-04-29T18:35:36.689Z,100548.95
2019-04-29T18:38:07.495Z,100553.59
2019-04-29T18:40:42.048Z,100558.20
2019-04-29T18:43:09.514Z,100555.37
2019-04-29T18:45:39.697Z,100550.16
2019-04-29T18:48:16.542Z,100545.52
2019-04-29T18:50:42.145Z,100543.04
2019-04-29T18:53:12.055Z,100544.45
2019-04-29T18:55:42.037Z,100549.45
2019-04-29T18:58:11.991Z,100540.90
2019-04-29T19:00:46.157Z,100550.62
2019-04-29T19:03:17.223Z,100553.23
2019-04-29T19:05:50.373Z,100549.20
2019-04-29T19:08:23.487Z,100544.96
2019-04-29T19:10:52.346Z,100547.47
2019-04-29T19:13:22.248Z,100545.08
2019-04-29T19:15:52.472Z,100542.94
2019-04-29T19:18:25.351Z,100541.27
2019-04-29T19:20:56.962Z,100544.59
2019-04-29T19:23:29.480Z,100546.48
2019-04-29T19:25:58.069Z,100538.33
2019-04-29T19:28:31.048Z,100537.96
2019-04-29T19:31:03.371Z,100544.73
2019-04-29T19:33:37.933Z,100533.15
2019-04-29T19:36:06.790Z,100541.30
2019-04-29T19:38:36.006Z,100529.29
2019-04-29T19:41:06.000Z,100540.67
2019-04-29T19:43:36.025Z,100538.42
2019-04-29T19:46:05.982Z,100539.97
2019-04-29T19:48:36.687Z,100538.77
2019-04-29T19:51:14.518Z,100530.34
2019-04-29T19:53:42.502Z,100530.66
2019-04-29T19:56:12.622Z,100527.69
2019-04-29T19:58:41.899Z,100527.53
2019-04-29T20:01:23.354Z,100534.95
2019-04-29T20:03:57.653Z,100530.48
2019-04-29T20:06:30.327Z,100528.81
2019-04-29T20:09:01.762Z,100533.92
2019-04-29T20:11:34.341Z,100529.44
2019-04-29T20:14:06.439Z,100523.27
2019-04-29T20:17:13.055Z,100527.53
2019-04-29T20:20:00.066Z,100526.47
2019-04-29T20:22:27.652Z,100524.20
2019-04-29T20:24:57.999Z,100517.22
2019-04-29T20:27:30.783Z,100525.73
2019-04-29T20:29:59.659Z,100525.34
2019-04-29T20:32:32.135Z,100514.45
2019-04-29T20:35:07.038Z,100533.08
2019-04-29T20:37:33.696Z,100516.84
2019-04-29T20:40:05.578Z,100519.35
2019-04-29T20:42:35.836Z,100511.74
2019-04-29T20:45:06.244Z,100519.22
2019-04-29T20:47:40.438Z,100510.06
2019-04-29T20:50:08.841Z,100519.41
2019-04-29T20:52:45.392Z,100518.72
2019-04-29T20:55:16.178Z,100515.41
2019-04-29T20:57:47.975Z,100519.64
2019-04-29T21:00:20.173Z,100513.27
2019-04-29T21:02:50.710Z,100505.97
2019-04-29T21:05:24.450Z,100503.92
2019-04-29T21:08:02.517Z,100502.89
2019-04-29T21:10:25.182Z,100499.42
2019-04-29T21:13:20.483Z,100497.87
2019-04-29T21:15:55.738Z,100494.11
2019-04-29T21:18:27.079Z,100503.23
2019-04-29T21:20:59.570Z,100499.19
2019-04-29T21:23:31.603Z,100497.87
2019-04-29T21:26:00.414Z,100495.88
2019-04-29T21:28:31.478Z,100490.06
2019-04-29T21:31:05.137Z,100489.14
2019-04-29T21:33:35.489Z,100489.60
2019-04-29T21:36:26.574Z,100491.74
2019-04-29T21:39:15.323Z,100487.60
2019-04-29T21:41:55.497Z,100484.30
2019-04-29T21:44:23.675Z,100490.80
2019-04-29T21:46:55.269Z,100481.59
2019-04-29T21:49:25.787Z,100478.52
2019-04-29T21:51:55.750Z,100473.08
2019-04-29T21:54:25.533Z,100465.36
2019-04-29T21:56:55.645Z,100465.36
2019-04-29T21:59:25.823Z,100476.15
2019-04-29T22:01:56.464Z,100478.52
2019-04-29T22:04:27.330Z,100473.91
2019-04-29T22:06:59.823Z,100478.92
2019-04-29T22:09:36.065Z,100471.70
2019-04-29T22:12:00.926Z,100474.77
2019-04-29T22:14:30.891Z,100480.12
2019-04-29T22:17:00.819Z,100476.75
2019-04-29T22:19:30.637Z,100481.05
2019-04-29T22:22:01.611Z,100473.23
2019-04-29T22:24:31.529Z,100469.83
2019-04-29T22:27:04.050Z,100468.16
2019-04-29T22:29:37.255Z,100459.14
2019-04-29T22:32:07.836Z,100463.05
2019-04-29T22:34:36.504Z,100472.30
2019-04-29T22:37:06.679Z,100464.59
2019-04-29T22:39:36.421Z,100461.22
2019-04-29T22:42:35.493Z,100452.61
2019-04-29T22:45:06.337Z,100466.30
2019-04-29T22:47:36.153Z,100460.98
2019-04-29T22:50:06.599Z,100457.42
2019-04-29T22:52:36.838Z,100452.08
2019-04-29T22:55:07.075Z,100446.50
2019-04-29T22:57:36.976Z,100446.63
2019-04-29T23:00:07.276Z,100445.83
2019-04-29T23:02:37.160Z,100444.66
2019-04-29T23:05:07.346Z,100443.59
2019-04-29T23:07:37.783Z,100434.34
2019-04-29T23:10:08.541Z,100442.19
2019-04-29T23:12:38.714Z,100439.45
2019-04-29T23:15:08.938Z,100435.59
2019-04-29T23:17:42.579Z,100435.55
2019-04-29T23:20:41.097Z,100438.69
2019-04-29T23:23:15.623Z,100445.37
2019-04-29T23:25:48.895Z,100438.55
2019-04-29T23:28:22.243Z,100441.84
2019-04-29T23:30:52.150Z,100438.70
2019-04-29T23:33:23.915Z,100438.66
2019-04-29T23:35:53.126Z,100438.62
2019-04-29T23:38:22.932Z,100436.95
2019-04-29T23:40:54.515Z,100435.88
2019-04-29T23:43:28.084Z,100440.15
2019-04-29T23:45:57.004Z,100441.28
2019-04-29T23:48:38.740Z,100435.91
2019-04-29T23:50:58.993Z,100434.20
2019-04-29T23:53:28.906Z,100433.22
2019-04-29T23:56:00.328Z,100438.00
2019-04-29T23:58:46.818Z,100425.36
